Ennis, Montana
Current Conditions -  °F | °C
As of 1:53 AM on Saturday 25 Oct 2014 (Local Time) from KDLN Reporting Station
Clear Clear  
Wind Chill: 36°   Ceiling: Unl
Heat Index: 36°   Visibility: 10mi
Dew Point: 34°   Wind: 3mph
Humidity: 93%   Direction: 210°SSW
Pressure: 30.09"   Gusts: NA
Location:  45.35°N, 111.73°W
Report Text: KDLN 250753Z AUTO 21003KT 10SM CLR 02/01 A3009 RMK AO2 SLP180 T00220011
Loading
Personal Weather Stations






























Interactive Weather Map
Tropical Storm Tracking
New forecast layout! Learn more

10-Day Weather Forecast

Advertisements
Track Severe Weather on mobile